createdAt,value
2023-04-29T00:00:06.809Z,16.30
2023-04-29T00:01:15.475Z,16.55
2023-04-29T00:02:17.448Z,14.88
2023-04-29T00:03:20.636Z,16.83
2023-04-29T00:04:22.756Z,16.48
2023-04-29T00:05:25.782Z,18.38
2023-04-29T00:06:29.382Z,16.58
2023-04-29T00:07:31.783Z,15.13
2023-04-29T00:08:34.573Z,15.32
2023-04-29T00:09:37.598Z,18.60
2023-04-29T00:10:41.722Z,14.40
2023-04-29T00:11:43.515Z,16.65
2023-04-29T00:12:46.309Z,14.55
2023-04-29T00:13:48.104Z,16.88
2023-04-29T00:14:50.864Z,13.00
2023-04-29T00:15:52.689Z,17.65
2023-04-29T00:16:55.458Z,13.75
2023-04-29T00:17:57.295Z,15.88
2023-04-29T00:19:00.575Z,13.73
2023-04-29T00:20:04.174Z,11.40
2023-04-29T00:21:06.999Z,12.25
2023-04-29T00:22:09.157Z,12.50
2023-04-29T00:23:11.974Z,16.25
2023-04-29T00:24:14.043Z,17.55
2023-04-29T00:25:17.095Z,13.63
2023-04-29T00:26:20.208Z,16.20
2023-04-29T00:27:24.859Z,14.23
2023-04-29T00:28:27.133Z,14.02
2023-04-29T00:29:29.934Z,16.65
2023-04-29T00:30:32.635Z,16.95
2023-04-29T00:31:35.523Z,13.48
2023-04-29T00:32:37.490Z,12.90
2023-04-29T00:33:40.838Z,13.90
2023-04-29T00:34:42.769Z,14.38
2023-04-29T00:35:45.696Z,16.13
2023-04-29T00:36:48.524Z,13.07
2023-04-29T00:37:51.287Z,12.07
2023-04-29T00:38:53.072Z,12.43
2023-04-29T00:39:55.796Z,13.90
2023-04-29T00:40:57.743Z,13.13
2023-04-29T00:42:03.382Z,14.82
2023-04-29T00:43:05.142Z,13.45
2023-04-29T00:44:08.163Z,13.98
2023-04-29T00:45:11.468Z,12.50
2023-04-29T00:46:14.260Z,13.35
2023-04-29T00:47:16.112Z,12.88
2023-04-29T00:48:18.907Z,12.68
2023-04-29T00:49:20.675Z,14.43
2023-04-29T00:50:23.730Z,13.98
2023-04-29T00:51:25.645Z,13.90
2023-04-29T00:52:30.312Z,12.18
2023-04-29T00:53:32.836Z,13.20
2023-04-29T00:54:36.132Z,12.77
2023-04-29T00:55:38.362Z,12.55
2023-04-29T00:56:42.586Z,15.32
2023-04-29T00:57:48.133Z,14.82
2023-04-29T00:58:52.479Z,15.57
2023-04-29T00:59:54.642Z,12.60
2023-04-29T01:00:57.827Z,14.48
2023-04-29T01:02:00.611Z,13.40
2023-04-29T01:03:04.180Z,16.63
2023-04-29T01:04:06.472Z,14.43
2023-04-29T01:05:09.684Z,15.43
2023-04-29T01:06:21.233Z,15.90
2023-04-29T01:07:30.681Z,16.23
2023-04-29T01:08:39.765Z,13.55
2023-04-29T01:09:54.196Z,14.85
2023-04-29T01:11:01.995Z,14.23
2023-04-29T01:12:11.899Z,19.77
2023-04-29T01:13:21.335Z,17.58
2023-04-29T01:14:25.892Z,18.35
2023-04-29T01:15:31.720Z,16.67
2023-04-29T01:16:38.027Z,32.63
2023-04-29T01:17:52.008Z,29.05
2023-04-29T01:18:56.337Z,40.05
2023-04-29T01:20:05.983Z,38.65
2023-04-29T01:21:08.073Z,32.97
2023-04-29T01:22:11.531Z,26.42
2023-04-29T01:23:13.467Z,15.30
2023-04-29T01:24:19.080Z,22.00
2023-04-29T01:25:23.631Z,22.13
2023-04-29T01:26:46.698Z,22.30
2023-04-29T01:28:04.029Z,28.90
2023-04-29T01:29:18.994Z,26.83
2023-04-29T01:30:29.486Z,28.55
2023-04-29T01:31:35.781Z,25.23
2023-04-29T01:32:45.851Z,26.38
2023-04-29T01:33:51.349Z,25.80
2023-04-29T01:35:00.632Z,25.80
2023-04-29T01:36:10.511Z,20.63
2023-04-29T01:37:19.500Z,21.50
2023-04-29T01:38:31.052Z,21.45
2023-04-29T01:39:42.942Z,25.45
2023-04-29T01:40:49.604Z,24.65
2023-04-29T01:42:06.314Z,43.45
2023-04-29T01:43:11.756Z,26.70
2023-04-29T01:44:17.939Z,25.30
2023-04-29T01:45:21.627Z,25.50
2023-04-29T01:46:24.635Z,27.23
2023-04-29T01:47:30.819Z,28.88
2023-04-29T01:48:33.943Z,25.83
2023-04-29T01:49:36.239Z,22.55
2023-04-29T01:50:39.201Z,22.02
2023-04-29T01:51:46.442Z,24.83
2023-04-29T01:52:49.446Z,21.20
2023-04-29T01:53:51.599Z,19.15
2023-04-29T01:54:56.485Z,16.75
2023-04-29T01:56:00.940Z,17.17
2023-04-29T01:57:19.337Z,15.30
2023-04-29T01:58:45.307Z,17.15
2023-04-29T02:00:07.782Z,16.48
2023-04-29T02:01:15.454Z,14.65
2023-04-29T02:02:21.238Z,14.00
2023-04-29T02:03:33.078Z,14.18
2023-04-29T02:04:37.753Z,12.88
2023-04-29T02:05:39.653Z,11.25
2023-04-29T02:06:42.847Z,13.50
2023-04-29T02:07:44.692Z,14.90
2023-04-29T02:08:49.044Z,12.32
2023-04-29T02:09:52.594Z,14.73
2023-04-29T02:10:57.813Z,11.95
2023-04-29T02:12:12.322Z,12.43
2023-04-29T02:13:15.036Z,12.40
2023-04-29T02:14:17.282Z,13.55
2023-04-29T02:15:20.213Z,18.55
2023-04-29T02:16:22.185Z,16.42
2023-04-29T02:17:37.814Z,18.42
2023-04-29T02:18:40.560Z,15.15
2023-04-29T02:19:43.286Z,14.57
2023-04-29T02:20:45.280Z,15.63
2023-04-29T02:21:48.037Z,12.65
2023-04-29T02:22:49.790Z,13.07
2023-04-29T02:23:54.351Z,22.13
2023-04-29T02:24:58.472Z,19.45
2023-04-29T02:26:03.938Z,14.98
2023-04-29T02:27:06.754Z,15.68
2023-04-29T02:28:09.964Z,13.75
2023-04-29T02:29:14.856Z,14.63
2023-04-29T02:30:19.469Z,12.93
2023-04-29T02:31:21.436Z,14.27
2023-04-29T02:32:24.911Z,15.98
2023-04-29T02:33:26.708Z,14.40
2023-04-29T02:34:29.496Z,13.20
2023-04-29T02:35:31.274Z,14.82
2023-04-29T02:36:34.042Z,15.75
2023-04-29T02:37:35.972Z,18.98
2023-04-29T02:38:38.697Z,14.13
2023-04-29T02:39:41.338Z,16.17
2023-04-29T02:40:44.711Z,16.40
2023-04-29T02:41:47.846Z,12.38
2023-04-29T02:42:50.760Z,12.70
2023-04-29T02:43:52.980Z,13.73
2023-04-29T02:44:56.102Z,15.55
2023-04-29T02:45:57.999Z,15.45
2023-04-29T02:47:01.157Z,14.43
2023-04-29T02:48:03.189Z,13.43
2023-04-29T02:49:06.050Z,12.48
2023-04-29T02:50:08.903Z,14.20
2023-04-29T02:51:11.780Z,14.88
2023-04-29T02:52:13.662Z,15.38
2023-04-29T02:53:16.447Z,20.00
2023-04-29T02:54:18.177Z,22.80
2023-04-29T02:55:21.551Z,21.40
2023-04-29T02:56:23.973Z,30.17
2023-04-29T02:57:29.575Z,25.58
2023-04-29T02:58:31.347Z,24.23
2023-04-29T02:59:34.348Z,20.85
2023-04-29T03:00:36.149Z,23.83
2023-04-29T03:01:39.909Z,31.65
2023-04-29T03:02:42.162Z,29.88
2023-04-29T03:03:45.310Z,25.25
2023-04-29T03:04:47.228Z,30.02
2023-04-29T03:05:50.279Z,36.65
2023-04-29T03:06:52.162Z,39.80
2023-04-29T03:07:54.918Z,44.90
2023-04-29T03:08:57.653Z,45.60
2023-04-29T03:10:00.571Z,65.80
2023-04-29T03:11:02.337Z,52.53
2023-04-29T03:12:08.357Z,29.10
2023-04-29T03:13:11.518Z,26.25
2023-04-29T03:14:15.344Z,24.70
2023-04-29T03:15:18.103Z,25.05
2023-04-29T03:16:22.042Z,27.85
2023-04-29T03:17:24.795Z,26.00
2023-04-29T03:18:26.745Z,26.77
2023-04-29T03:19:30.683Z,31.98
2023-04-29T03:20:32.709Z,34.20
2023-04-29T03:21:38.038Z,25.00
2023-04-29T03:22:39.979Z,33.10
2023-04-29T03:23:42.815Z,39.03
2023-04-29T03:24:48.127Z,35.03
2023-04-29T03:25:53.051Z,39.83
2023-04-29T03:26:54.837Z,41.83
2023-04-29T03:27:57.726Z,40.88
2023-04-29T03:29:00.977Z,37.15
2023-04-29T03:30:03.692Z,41.42
2023-04-29T03:31:05.874Z,48.53
2023-04-29T03:32:08.757Z,44.45
2023-04-29T03:33:10.642Z,41.60
2023-04-29T03:34:14.501Z,37.22
2023-04-29T03:35:22.400Z,40.60
2023-04-29T03:36:43.668Z,30.30
2023-04-29T03:37:46.520Z,26.42
2023-04-29T03:38:56.371Z,31.55
2023-04-29T03:39:58.197Z,25.23
2023-04-29T03:41:01.015Z,25.15
2023-04-29T03:42:03.083Z,24.38
2023-04-29T03:43:06.850Z,28.92
2023-04-29T03:44:10.136Z,25.00
2023-04-29T03:45:14.316Z,28.13
2023-04-29T03:46:16.807Z,28.38
2023-04-29T03:47:19.654Z,19.42
2023-04-29T03:48:21.617Z,24.08
2023-04-29T03:49:24.671Z,27.58
2023-04-29T03:50:26.529Z,25.83
2023-04-29T03:51:29.763Z,24.00
2023-04-29T03:52:40.934Z,23.25
2023-04-29T03:53:50.596Z,27.55
2023-04-29T03:54:52.351Z,25.88
2023-04-29T03:55:55.588Z,22.52
2023-04-29T03:56:57.382Z,22.17
2023-04-29T03:58:00.567Z,23.25
2023-04-29T03:59:02.760Z,22.80
2023-04-29T04:00:09.502Z,20.35
2023-04-29T04:01:23.774Z,21.13
2023-04-29T04:02:28.525Z,19.98
2023-04-29T04:03:30.678Z,18.92
2023-04-29T04:04:34.501Z,19.08
2023-04-29T04:05:36.482Z,21.52
2023-04-29T04:06:51.124Z,19.98
2023-04-29T04:07:55.663Z,20.50
2023-04-29T04:09:10.515Z,22.33
2023-04-29T04:10:12.542Z,18.00
2023-04-29T04:11:16.011Z,17.05
2023-04-29T04:12:21.499Z,19.63
2023-04-29T04:13:24.330Z,18.75
2023-04-29T04:14:26.107Z,19.33
2023-04-29T04:15:30.243Z,20.23
2023-04-29T04:16:33.398Z,23.50
2023-04-29T04:17:37.215Z,28.40
2023-04-29T04:18:39.477Z,32.55
2023-04-29T04:19:42.364Z,35.50
2023-04-29T04:20:44.163Z,37.15
2023-04-29T04:21:46.921Z,29.42
2023-04-29T04:22:48.729Z,24.15
2023-04-29T04:24:04.656Z,25.70
2023-04-29T04:25:08.373Z,19.63
2023-04-29T04:26:11.216Z,18.35
2023-04-29T04:27:27.775Z,15.80
2023-04-29T04:28:32.548Z,18.63
2023-04-29T04:29:39.906Z,17.25
2023-04-29T04:30:48.137Z,18.63
2023-04-29T04:31:50.311Z,15.68
2023-04-29T04:32:55.153Z,16.77
2023-04-29T04:33:57.748Z,17.30
2023-04-29T04:35:00.533Z,15.82
2023-04-29T04:36:02.427Z,17.23
2023-04-29T04:37:05.201Z,25.77
2023-04-29T04:38:07.826Z,26.50
2023-04-29T04:39:10.709Z,18.52
2023-04-29T04:40:14.465Z,12.95
2023-04-29T04:41:37.161Z,20.02
2023-04-29T04:42:39.186Z,20.55
2023-04-29T04:43:44.220Z,20.20
2023-04-29T04:44:59.634Z,26.05
2023-04-29T04:46:12.583Z,23.77
2023-04-29T04:47:19.372Z,14.40
2023-04-29T04:48:31.496Z,16.05
2023-04-29T04:49:34.461Z,15.93
2023-04-29T04:50:36.558Z,13.23
2023-04-29T04:51:39.275Z,10.50
2023-04-29T04:52:41.772Z,10.30
2023-04-29T04:54:13.519Z,14.63
2023-04-29T04:55:15.523Z,12.30
2023-04-29T04:56:21.997Z,14.27
2023-04-29T04:57:24.182Z,13.60
2023-04-29T04:58:27.048Z,11.38
2023-04-29T04:59:28.851Z,10.75
2023-04-29T05:00:31.766Z,11.63
2023-04-29T05:01:35.486Z,12.73
2023-04-29T05:02:38.529Z,16.65
2023-04-29T05:03:40.823Z,15.15
2023-04-29T05:04:43.892Z,18.00
2023-04-29T05:05:53.446Z,21.88
2023-04-29T05:06:56.261Z,25.08
2023-04-29T05:08:00.017Z,12.80
2023-04-29T05:09:09.029Z,19.42
2023-04-29T05:10:11.348Z,12.70
2023-04-29T05:11:27.348Z,13.80
2023-04-29T05:12:56.127Z,11.65
2023-04-29T05:13:58.067Z,12.35
2023-04-29T05:15:00.834Z,14.82
2023-04-29T05:16:06.391Z,14.57
2023-04-29T05:17:11.605Z,12.88
2023-04-29T05:18:14.517Z,11.98
2023-04-29T05:19:18.663Z,16.88
2023-04-29T05:20:21.652Z,17.33
2023-04-29T05:21:23.450Z,18.02
2023-04-29T05:22:26.448Z,14.20
2023-04-29T05:23:28.346Z,19.15
2023-04-29T05:24:31.090Z,18.30
2023-04-29T05:25:33.012Z,19.50
2023-04-29T05:26:36.373Z,19.92
2023-04-29T05:27:38.479Z,17.50
2023-04-29T05:28:44.110Z,13.90
2023-04-29T05:29:46.259Z,14.43
2023-04-29T05:30:51.671Z,12.38
2023-04-29T05:31:53.578Z,14.27
2023-04-29T05:32:57.765Z,14.43
2023-04-29T05:33:59.590Z,14.68
2023-04-29T05:35:04.246Z,12.43
2023-04-29T05:36:08.313Z,13.48
2023-04-29T05:37:11.110Z,13.65
2023-04-29T05:38:28.987Z,11.55
2023-04-29T05:39:44.044Z,14.35
2023-04-29T05:40:51.154Z,13.50
2023-04-29T05:42:19.515Z,12.77
2023-04-29T05:43:25.309Z,15.25
2023-04-29T05:44:28.883Z,13.15
2023-04-29T05:45:30.685Z,14.70
2023-04-29T05:46:33.481Z,13.27
2023-04-29T05:47:35.326Z,12.45
2023-04-29T05:48:39.450Z,11.15
2023-04-29T05:49:41.450Z,13.05
2023-04-29T05:50:45.541Z,11.70
2023-04-29T05:51:47.494Z,13.25
2023-04-29T05:52:51.809Z,11.63
2023-04-29T05:53:53.868Z,12.90
2023-04-29T05:54:56.645Z,13.32
2023-04-29T05:55:58.894Z,12.80
2023-04-29T05:57:03.243Z,15.13
2023-04-29T05:58:05.042Z,11.52
2023-04-29T05:59:08.289Z,11.32
2023-04-29T06:00:11.234Z,15.23
2023-04-29T06:01:17.402Z,13.32
2023-04-29T06:02:20.499Z,14.07
2023-04-29T06:03:24.223Z,10.27
2023-04-29T06:04:47.704Z,12.85
2023-04-29T06:06:02.762Z,12.02
2023-04-29T06:07:24.757Z,15.32
2023-04-29T06:08:40.758Z,14.77
2023-04-29T06:09:52.811Z,12.07
2023-04-29T06:10:54.863Z,13.32
2023-04-29T06:11:57.868Z,11.48
2023-04-29T06:12:59.795Z,15.10
2023-04-29T06:14:03.313Z,12.18
2023-04-29T06:15:05.849Z,13.00
2023-04-29T06:16:08.929Z,15.05
2023-04-29T06:17:12.325Z,14.00
2023-04-29T06:18:14.579Z,14.68
2023-04-29T06:19:19.272Z,12.15
2023-04-29T06:20:22.501Z,14.05
2023-04-29T06:21:25.301Z,16.83
2023-04-29T06:22:27.063Z,12.35
2023-04-29T06:23:32.124Z,14.20
2023-04-29T06:24:36.051Z,13.93
2023-04-29T06:25:39.342Z,16.77
2023-04-29T06:26:43.736Z,12.07
2023-04-29T06:27:46.685Z,15.48
2023-04-29T06:28:49.865Z,16.45
2023-04-29T06:29:52.964Z,13.32
2023-04-29T06:30:54.854Z,18.15
2023-04-29T06:31:57.869Z,17.85
2023-04-29T06:32:59.731Z,15.07
2023-04-29T06:34:02.609Z,14.48
2023-04-29T06:35:05.221Z,14.50
2023-04-29T06:36:23.415Z,14.27
2023-04-29T06:37:38.287Z,14.07
2023-04-29T06:39:10.547Z,15.82
2023-04-29T06:40:36.467Z,13.75
2023-04-29T06:42:05.657Z,15.43
2023-04-29T06:43:17.922Z,17.73
2023-04-29T06:44:20.698Z,16.38
2023-04-29T06:45:31.521Z,19.50
2023-04-29T06:46:50.603Z,14.93
2023-04-29T06:48:00.646Z,15.35
2023-04-29T06:49:14.249Z,16.10
2023-04-29T06:50:17.653Z,15.48
2023-04-29T06:51:20.441Z,13.82
2023-04-29T06:52:23.665Z,12.63
2023-04-29T06:53:26.712Z,14.32
2023-04-29T06:54:28.690Z,16.55
2023-04-29T06:55:31.442Z,13.13
2023-04-29T06:56:33.245Z,12.45
2023-04-29T06:57:36.816Z,10.88
2023-04-29T06:58:38.691Z,10.52
2023-04-29T06:59:43.607Z,13.80
2023-04-29T07:00:46.157Z,13.40
2023-04-29T07:02:51.018Z,13.88
2023-04-29T07:03:54.031Z,13.50
2023-04-29T07:04:56.075Z,13.98
2023-04-29T07:05:58.909Z,11.05
2023-04-29T07:07:00.881Z,13.75
2023-04-29T07:08:05.114Z,15.52
2023-04-29T07:09:07.391Z,12.70
2023-04-29T07:10:13.070Z,14.38
2023-04-29T07:11:14.879Z,11.73
2023-04-29T07:12:17.579Z,12.60
2023-04-29T07:13:19.353Z,13.23
2023-04-29T07:14:23.791Z,14.70
2023-04-29T07:15:26.098Z,11.77
2023-04-29T07:16:29.372Z,12.50
2023-04-29T07:17:31.414Z,10.90
2023-04-29T07:18:34.251Z,10.85
2023-04-29T07:19:36.261Z,12.52
2023-04-29T07:20:39.059Z,13.88
2023-04-29T07:21:41.557Z,10.98
2023-04-29T07:22:44.358Z,12.50
2023-04-29T07:23:47.995Z,15.15
2023-04-29T07:24:54.692Z,15.32
2023-04-29T07:25:57.559Z,11.20
2023-04-29T07:27:00.436Z,10.75
2023-04-29T07:28:02.242Z,15.90
2023-04-29T07:29:04.998Z,12.65
2023-04-29T07:30:07.675Z,13.82
2023-04-29T07:31:10.844Z,11.98
2023-04-29T07:32:13.387Z,16.02
2023-04-29T07:33:16.842Z,12.88
2023-04-29T07:34:18.608Z,12.40
2023-04-29T07:35:21.652Z,11.98
2023-04-29T07:36:23.489Z,10.60
2023-04-29T07:37:26.776Z,9.90
2023-04-29T07:38:29.600Z,10.23
2023-04-29T07:39:35.573Z,9.90
2023-04-29T07:40:38.320Z,10.77
2023-04-29T07:41:41.178Z,10.07
2023-04-29T07:42:42.945Z,9.85
2023-04-29T07:43:45.803Z,9.40
2023-04-29T07:44:47.631Z,10.95
2023-04-29T07:45:50.497Z,10.13
2023-04-29T07:46:52.381Z,11.07
2023-04-29T07:47:55.185Z,10.27
2023-04-29T07:48:58.284Z,8.38
2023-04-29T07:50:01.299Z,10.02
2023-04-29T07:51:04.083Z,11.30
2023-04-29T07:52:07.808Z,12.13
2023-04-29T07:53:09.958Z,10.82
2023-04-29T07:54:12.694Z,10.93
2023-04-29T07:55:15.974Z,9.82
2023-04-29T07:56:18.962Z,10.77
2023-04-29T07:57:21.200Z,10.88
2023-04-29T07:58:23.956Z,9.65
2023-04-29T07:59:25.735Z,11.20
2023-04-29T08:00:28.849Z,10.50
2023-04-29T08:01:30.720Z,10.57
2023-04-29T08:02:34.613Z,10.32
2023-04-29T08:03:40.610Z,12.80
2023-04-29T08:04:44.447Z,10.65
2023-04-29T08:05:51.216Z,11.02
2023-04-29T08:06:53.115Z,10.02
2023-04-29T08:07:55.884Z,13.32
2023-04-29T08:09:01.162Z,11.43
2023-04-29T08:10:04.826Z,12.02
2023-04-29T08:11:07.949Z,12.57
2023-04-29T08:12:13.522Z,10.07
2023-04-29T08:13:16.006Z,12.65
2023-04-29T08:14:18.874Z,11.00
2023-04-29T08:15:20.692Z,14.52
2023-04-29T08:16:26.069Z,11.25
2023-04-29T08:17:27.976Z,12.20
2023-04-29T08:18:30.805Z,12.23
2023-04-29T08:19:32.738Z,10.80
2023-04-29T08:20:35.701Z,11.50
2023-04-29T08:21:37.553Z,11.13
2023-04-29T08:22:40.625Z,9.80
2023-04-29T08:23:42.397Z,9.90
2023-04-29T08:24:45.277Z,14.15
2023-04-29T08:25:47.117Z,12.90
2023-04-29T08:26:51.709Z,14.23
2023-04-29T08:27:53.808Z,14.38
2023-04-29T08:28:56.606Z,11.07
2023-04-29T08:29:58.837Z,11.32
2023-04-29T08:31:01.592Z,16.40
2023-04-29T08:32:03.513Z,15.27
2023-04-29T08:33:06.682Z,13.38
2023-04-29T08:34:08.507Z,14.23
2023-04-29T08:35:11.492Z,10.27
2023-04-29T08:36:13.543Z,11.52
2023-04-29T08:37:18.407Z,12.45
2023-04-29T08:38:21.457Z,10.50
2023-04-29T08:39:23.226Z,10.05
2023-04-29T08:40:26.425Z,13.10
2023-04-29T08:41:28.218Z,11.57
2023-04-29T08:42:36.293Z,12.20
2023-04-29T08:43:40.793Z,11.07
2023-04-29T08:44:44.562Z,9.95
2023-04-29T08:45:48.516Z,9.88
2023-04-29T08:46:52.070Z,9.88
2023-04-29T08:47:54.463Z,10.38
2023-04-29T08:48:58.056Z,9.85
2023-04-29T08:50:04.017Z,11.55
2023-04-29T08:51:06.809Z,11.45
2023-04-29T08:52:08.640Z,11.65
2023-04-29T08:53:13.327Z,9.80
2023-04-29T08:54:15.182Z,10.10
2023-04-29T08:55:18.421Z,9.30
2023-04-29T08:56:21.822Z,9.20
2023-04-29T08:57:26.080Z,10.73
2023-04-29T08:58:30.042Z,10.85
2023-04-29T08:59:33.488Z,11.57
2023-04-29T09:00:36.357Z,11.40
2023-04-29T09:01:41.926Z,11.90
2023-04-29T09:02:47.660Z,9.40
2023-04-29T09:03:57.073Z,10.13
2023-04-29T09:05:06.072Z,9.70
2023-04-29T09:06:11.941Z,7.97
2023-04-29T09:07:14.069Z,9.13
2023-04-29T09:08:16.978Z,12.07
2023-04-29T09:09:20.904Z,8.85
2023-04-29T09:10:24.363Z,7.70
2023-04-29T09:11:27.369Z,8.77
2023-04-29T09:12:30.462Z,9.88
2023-04-29T09:13:33.662Z,7.07
2023-04-29T09:14:37.315Z,7.75
2023-04-29T09:15:41.327Z,7.70
2023-04-29T09:16:47.629Z,6.30
2023-04-29T09:17:49.860Z,6.00
2023-04-29T09:18:54.663Z,6.78
2023-04-29T09:19:57.496Z,6.57
2023-04-29T09:20:59.217Z,6.10
2023-04-29T09:22:02.423Z,7.45
2023-04-29T09:23:04.697Z,6.90
2023-04-29T09:24:07.474Z,6.82
2023-04-29T09:25:12.947Z,7.07
2023-04-29T09:26:15.930Z,6.95
2023-04-29T09:27:27.831Z,5.32
2023-04-29T09:28:29.762Z,4.95
2023-04-29T09:29:34.907Z,7.95
2023-04-29T09:30:45.877Z,7.57
2023-04-29T09:31:50.483Z,7.37
2023-04-29T09:33:06.696Z,4.90
2023-04-29T09:34:09.894Z,7.43
2023-04-29T09:35:22.642Z,7.63
2023-04-29T09:36:39.010Z,5.90
2023-04-29T09:37:41.847Z,6.10
2023-04-29T09:38:54.937Z,9.33
2023-04-29T09:39:57.741Z,6.55
2023-04-29T09:41:00.751Z,5.93
2023-04-29T09:42:05.761Z,8.15
2023-04-29T09:43:13.630Z,5.30
2023-04-29T09:44:16.634Z,4.47
2023-04-29T09:45:34.545Z,4.40
2023-04-29T09:46:39.148Z,7.17
2023-04-29T09:47:42.022Z,4.50
2023-04-29T09:48:43.826Z,5.53
2023-04-29T09:49:46.883Z,4.20
2023-04-29T09:51:01.595Z,6.80
2023-04-29T09:52:05.797Z,5.20
2023-04-29T09:53:09.241Z,5.60
2023-04-29T09:54:23.228Z,6.43
2023-04-29T09:55:26.699Z,4.27
2023-04-29T09:56:30.842Z,5.40
2023-04-29T09:57:42.147Z,7.60
2023-04-29T09:58:46.561Z,4.00
2023-04-29T09:59:49.312Z,5.13
2023-04-29T10:00:53.126Z,4.77
2023-04-29T10:01:57.048Z,5.30
2023-04-29T10:03:01.357Z,9.53
2023-04-29T10:04:04.816Z,9.30
2023-04-29T10:05:08.293Z,6.03
2023-04-29T10:06:10.336Z,7.47
2023-04-29T10:07:15.727Z,8.00
2023-04-29T10:08:17.925Z,5.00
2023-04-29T10:09:21.287Z,4.80
2023-04-29T10:10:23.290Z,4.83
2023-04-29T10:11:27.089Z,4.90
2023-04-29T10:12:29.863Z,7.57
2023-04-29T10:13:32.620Z,5.87
2023-04-29T10:14:40.416Z,5.40
2023-04-29T10:15:50.371Z,4.77
2023-04-29T10:17:00.525Z,7.43
2023-04-29T10:18:10.773Z,6.10
2023-04-29T10:19:16.903Z,4.50
2023-04-29T10:20:23.935Z,5.57
2023-04-29T10:21:29.219Z,5.13
2023-04-29T10:22:35.449Z,8.60
2023-04-29T10:23:37.658Z,8.30
2023-04-29T10:24:40.842Z,6.57
2023-04-29T10:25:44.764Z,10.53
2023-04-29T10:26:48.421Z,5.83
2023-04-29T10:27:53.360Z,7.07
2023-04-29T10:28:57.064Z,7.63
2023-04-29T10:30:00.067Z,7.47
2023-04-29T10:31:03.232Z,7.60
2023-04-29T10:32:08.612Z,6.13
2023-04-29T10:33:11.719Z,6.83
2023-04-29T10:34:14.836Z,7.03
2023-04-29T10:35:19.115Z,7.30
2023-04-29T10:36:22.446Z,9.07
2023-04-29T10:37:25.182Z,8.60
2023-04-29T10:38:32.040Z,8.37
2023-04-29T10:39:40.467Z,7.77
2023-04-29T10:40:46.433Z,5.40
2023-04-29T10:41:49.296Z,6.40
2023-04-29T10:42:53.261Z,6.82
2023-04-29T10:43:56.621Z,7.27
2023-04-29T10:45:18.383Z,6.30
2023-04-29T10:46:23.101Z,6.43
2023-04-29T10:47:26.315Z,10.27
2023-04-29T10:48:29.095Z,8.67
2023-04-29T10:49:34.348Z,9.60
2023-04-29T10:50:43.309Z,8.57
2023-04-29T10:51:46.679Z,10.48
2023-04-29T10:52:55.626Z,8.07
2023-04-29T10:54:07.661Z,6.82
2023-04-29T10:55:09.476Z,9.93
2023-04-29T10:56:12.182Z,8.68
2023-04-29T10:57:21.878Z,9.30
2023-04-29T10:58:37.195Z,7.13
2023-04-29T10:59:48.864Z,8.75
2023-04-29T11:00:51.540Z,10.50
2023-04-29T11:01:54.730Z,8.13
2023-04-29T11:02:59.501Z,8.30
2023-04-29T11:04:04.829Z,10.00
2023-04-29T11:05:07.938Z,8.95
2023-04-29T11:06:11.582Z,8.95
2023-04-29T11:07:27.648Z,9.35
2023-04-29T11:08:29.638Z,8.52
2023-04-29T11:09:34.033Z,9.85
2023-04-29T11:10:36.772Z,9.27
2023-04-29T11:11:52.075Z,10.57
2023-04-29T11:13:25.120Z,8.75
2023-04-29T11:14:30.369Z,8.00
2023-04-29T11:15:33.500Z,10.60
2023-04-29T11:16:37.707Z,8.75
2023-04-29T11:17:41.507Z,10.57
2023-04-29T11:19:14.728Z,10.13
2023-04-29T11:20:18.415Z,8.48
2023-04-29T11:21:20.159Z,8.57
2023-04-29T11:22:27.258Z,9.18
2023-04-29T11:23:29.099Z,9.38
2023-04-29T11:24:31.851Z,10.07
2023-04-29T11:25:36.129Z,9.93
2023-04-29T11:26:38.910Z,8.80
2023-04-29T11:27:42.623Z,7.03
2023-04-29T11:28:45.383Z,10.90
2023-04-29T11:29:48.401Z,8.55
2023-04-29T11:30:51.417Z,39.70
2023-04-29T11:32:00.043Z,14.90
2023-04-29T11:33:03.122Z,8.65
2023-04-29T11:34:05.499Z,13.57
2023-04-29T11:35:11.607Z,14.13
2023-04-29T11:36:14.276Z,10.65
2023-04-29T11:37:21.538Z,56.33
2023-04-29T11:38:24.678Z,17.00
2023-04-29T11:39:28.028Z,9.45
2023-04-29T11:40:29.790Z,16.20
2023-04-29T11:41:32.954Z,9.57
2023-04-29T11:42:35.464Z,15.52
2023-04-29T11:43:39.685Z,16.92
2023-04-29T11:44:41.457Z,10.02
2023-04-29T11:45:46.227Z,10.20
2023-04-29T11:46:49.605Z,23.80
2023-04-29T11:47:55.336Z,39.30
2023-04-29T11:48:58.522Z,64.80
2023-04-29T11:50:05.578Z,45.28
2023-04-29T11:51:08.677Z,13.23
2023-04-29T11:52:11.546Z,10.65
2023-04-29T11:53:13.422Z,11.32
2023-04-29T11:54:16.718Z,10.20
2023-04-29T11:55:18.978Z,12.95
2023-04-29T11:56:25.441Z,16.00
2023-04-29T11:57:28.306Z,13.88
2023-04-29T11:58:30.146Z,10.25
2023-04-29T11:59:33.660Z,6.88
2023-04-29T12:00:36.501Z,10.05
2023-04-29T12:01:39.315Z,8.02
2023-04-29T12:02:44.614Z,7.15
2023-04-29T12:03:47.677Z,10.52
2023-04-29T12:04:50.120Z,7.93
2023-04-29T12:05:54.111Z,7.32
2023-04-29T12:06:59.660Z,7.30
2023-04-29T12:08:01.579Z,9.73
2023-04-29T12:09:04.694Z,8.82
2023-04-29T12:10:09.771Z,9.65
2023-04-29T12:11:12.765Z,7.35
2023-04-29T12:12:15.853Z,6.90
2023-04-29T12:13:19.177Z,6.15
2023-04-29T12:14:21.075Z,10.63
2023-04-29T12:15:23.919Z,7.50
2023-04-29T12:16:26.648Z,8.88
2023-04-29T12:17:29.612Z,8.20
2023-04-29T12:18:31.432Z,8.32
2023-04-29T12:19:34.421Z,12.05
2023-04-29T12:20:36.546Z,8.30
2023-04-29T12:21:49.454Z,6.50
2023-04-29T12:22:53.452Z,12.05
2023-04-29T12:24:00.562Z,7.47
2023-04-29T12:25:04.839Z,8.73
2023-04-29T12:26:07.926Z,10.25
2023-04-29T12:27:10.313Z,10.13
2023-04-29T12:28:13.660Z,11.13
2023-04-29T12:29:15.615Z,7.53
2023-04-29T12:30:18.618Z,10.82
2023-04-29T12:31:21.159Z,6.53
2023-04-29T12:32:25.596Z,8.68
2023-04-29T12:33:29.698Z,10.50
2023-04-29T12:34:33.876Z,9.45
2023-04-29T12:35:36.211Z,17.98
2023-04-29T12:36:39.055Z,13.27
2023-04-29T12:37:40.985Z,11.85
2023-04-29T12:38:45.060Z,14.27
2023-04-29T12:39:49.948Z,9.77
2023-04-29T12:40:52.666Z,7.75
2023-04-29T12:41:56.065Z,8.05
2023-04-29T12:42:58.874Z,8.05
2023-04-29T12:44:00.649Z,8.52
2023-04-29T12:45:03.549Z,10.68
2023-04-29T12:46:08.138Z,11.30
2023-04-29T12:47:10.299Z,9.55
2023-04-29T12:48:25.305Z,12.75
2023-04-29T12:49:31.767Z,9.07
2023-04-29T12:50:38.644Z,10.73
2023-04-29T12:51:41.838Z,11.02
2023-04-29T12:52:43.620Z,9.18
2023-04-29T12:53:47.912Z,7.05
2023-04-29T12:54:49.717Z,10.32
2023-04-29T12:55:52.615Z,8.05
2023-04-29T12:56:55.585Z,8.60
2023-04-29T12:57:59.703Z,9.10
2023-04-29T12:59:08.282Z,7.35
2023-04-29T13:00:11.734Z,7.07
2023-04-29T13:01:17.690Z,7.20
2023-04-29T13:02:21.366Z,8.82
2023-04-29T13:03:23.899Z,9.25
2023-04-29T13:04:26.921Z,5.45
2023-04-29T13:05:29.076Z,6.25
2023-04-29T13:06:32.523Z,5.35
2023-04-29T13:07:34.329Z,4.18
2023-04-29T13:08:37.878Z,3.78
2023-04-29T13:09:41.783Z,4.20
2023-04-29T13:10:44.522Z,4.22
2023-04-29T13:11:46.728Z,3.33
2023-04-29T13:12:49.511Z,5.40
2023-04-29T13:13:52.674Z,5.63
2023-04-29T13:14:57.795Z,4.40
2023-04-29T13:16:01.204Z,4.40
2023-04-29T13:17:04.039Z,4.82
2023-04-29T13:18:06.983Z,3.30
2023-04-29T13:19:24.613Z,4.10
2023-04-29T13:20:32.497Z,7.50
2023-04-29T13:21:34.279Z,4.65
2023-04-29T13:22:37.400Z,6.22
2023-04-29T13:23:39.159Z,4.55
2023-04-29T13:24:43.224Z,4.73
2023-04-29T13:25:45.282Z,4.68
2023-04-29T13:26:49.582Z,5.53
2023-04-29T13:27:52.811Z,3.72
2023-04-29T13:28:55.568Z,4.63
2023-04-29T13:29:57.993Z,3.70
2023-04-29T13:31:00.891Z,5.88
2023-04-29T13:32:02.773Z,4.10
2023-04-29T13:33:12.284Z,3.97
2023-04-29T13:34:16.271Z,3.53
2023-04-29T13:35:19.149Z,5.85
2023-04-29T13:36:21.854Z,3.83
2023-04-29T13:37:24.695Z,4.15
2023-04-29T13:38:28.277Z,3.90
2023-04-29T13:39:30.362Z,4.63
2023-04-29T13:40:38.808Z,6.18
2023-04-29T13:41:45.972Z,4.30
2023-04-29T13:42:50.509Z,10.93
2023-04-29T13:43:57.978Z,5.35
2023-04-29T13:45:01.567Z,5.00
2023-04-29T13:46:04.410Z,5.43
2023-04-29T13:47:06.615Z,3.75
2023-04-29T13:48:30.189Z,5.20
2023-04-29T13:51:14.447Z,5.07
2023-04-29T13:53:30.454Z,3.72
2023-04-29T13:57:37.283Z,5.03
2023-04-29T13:59:36.268Z,5.32
2023-04-29T14:01:05.346Z,3.53
2023-04-29T14:02:23.190Z,4.35
2023-04-29T14:03:18.782Z,4.00
2023-04-29T14:04:20.975Z,4.40
2023-04-29T14:05:24.011Z,6.78
2023-04-29T14:06:25.892Z,3.22
2023-04-29T14:07:28.666Z,3.40
2023-04-29T14:08:31.398Z,3.72
2023-04-29T14:09:34.130Z,3.75
2023-04-29T14:10:38.475Z,3.20